Time;durP1;ratioP1;P1;durP2;ratioP2;P2;SDS_P1;SDS_P2;PMS_P1;PMS_P2;Temp;Humidity;BMP_temperature;BMP_pressure;BME280_temperature;BME280_humidity;BME280_pressure;Samples;Min_cycle;Max_cycle;Signal;HPM_P1;HPM_P2
2022/04/23 00:01:35;;;;;;;18.52;14.48;;;;;;;10.91;71.91;99739.28;4975594;28;20110;-58
2022/04/23 00:04:01;;;;;;;22.77;16.02;;;;;;;10.94;71.84;99749.56;4974334;28;20050;-59
2022/04/23 00:06:27;;;;;;;19.13;15.07;;;;;;;10.95;71.70;99744.34;4975208;28;20046;-59
2022/04/23 00:08:53;;;;;;;20.65;15.10;;;;;;;10.96;71.69;99745.19;4974808;28;20031;-59
2022/04/23 00:11:18;;;;;;;18.50;14.15;;;;;;;10.99;71.52;99745.16;4974989;28;20530;-59
2022/04/23 00:13:44;;;;;;;18.60;14.80;;;;;;;10.99;72.19;99746.00;4969893;28;20083;-59
2022/04/23 00:16:10;;;;;;;26.27;16.20;;;;;;;10.97;71.61;99750.34;4948785;28;20487;-59
2022/04/23 00:18:36;;;;;;;27.17;15.85;;;;;;;10.92;72.00;99751.34;4975119;28;20030;-59
2022/04/23 00:21:03;;;;;;;25.27;16.65;;;;;;;10.96;72.01;99755.56;4974748;28;20357;-59
2022/04/23 00:23:31;;;;;;;26.23;15.48;;;;;;;10.85;72.21;99735.06;4974914;28;20027;-59
2022/04/23 00:25:58;;;;;;;23.33;16.13;;;;;;;10.95;71.74;99759.91;4974398;28;20546;-60
2022/04/23 00:28:24;;;;;;;20.77;14.88;;;;;;;10.98;72.22;99751.22;4974381;28;20074;-59
2022/04/23 00:30:52;;;;;;;23.08;15.90;;;;;;;11.00;72.47;99752.00;4974749;28;20036;-59
2022/04/23 00:33:19;;;;;;;22.98;14.65;;;;;;;10.98;72.71;99749.47;4974585;28;20480;-59
2022/04/23 00:35:45;;;;;;;23.58;16.38;;;;;;;10.99;72.71;99746.00;4982569;28;20022;-59
2022/04/23 00:38:10;;;;;;;31.88;16.75;;;;;;;11.01;72.64;99751.13;4961232;28;20030;-59
2022/04/23 00:40:38;;;;;;;22.98;14.85;;;;;;;10.99;72.05;99747.75;4971819;28;20030;-59
2022/04/23 00:43:10;;;;;;;20.73;15.38;;;;;;;10.97;72.43;99746.91;4990833;28;20169;-58
2022/04/23 00:45:36;;;;;;;27.63;17.70;;;;;;;10.97;72.90;99745.16;4974229;28;20536;-58
2022/04/23 00:48:02;;;;;;;21.25;16.35;;;;;;;10.97;72.28;99744.31;4972736;28;20045;-59
2022/04/23 00:50:27;;;;;;;21.63;15.85;;;;;;;10.96;72.52;99742.59;4974002;28;20027;-59
2022/04/23 00:52:58;;;;;;;20.27;16.02;;;;;;;10.93;72.08;99740.94;4973631;28;20465;-59
2022/04/23 00:55:25;;;;;;;25.95;17.25;;;;;;;10.94;72.65;99737.44;4973799;28;20110;-60
2022/04/23 00:57:51;;;;;;;23.45;16.75;;;;;;;10.92;72.44;99741.81;4973975;28;20097;-60
2022/04/23 01:00:18;;;;;;;20.00;16.20;;;;;;;10.88;72.39;99738.44;4973898;28;20082;-60
2022/04/23 01:02:44;;;;;;;21.95;16.67;;;;;;;10.88;73.01;99732.41;4973552;28;20129;-60
2022/04/23 01:05:10;;;;;;;19.08;15.80;;;;;;;10.89;72.99;99734.13;4973536;28;20110;-60
2022/04/23 01:07:42;;;;;;;26.48;19.50;;;;;;;10.57;72.75;99672.66;4973531;28;20026;-61
2022/04/23 01:10:08;;;;;;;25.15;17.48;;;;;;;10.93;72.51;99734.91;4973272;28;20037;-60
2022/04/23 01:12:38;;;;;;;23.38;16.52;;;;;;;10.87;72.08;99733.28;4973753;28;20049;-60
2022/04/23 01:15:10;;;;;;;21.05;16.92;;;;;;;10.86;72.79;99740.22;4965366;28;20401;-59
2022/04/23 01:17:36;;;;;;;23.92;17.33;;;;;;;10.92;73.33;99735.81;4960522;28;20055;-59
2022/04/23 01:20:13;;;;;;;22.38;15.70;;;;;;;10.92;73.43;99734.06;4973023;28;20113;-59
2022/04/23 01:22:40;;;;;;;25.20;17.25;;;;;;;10.92;73.43;99734.06;4973101;28;20497;-59
2022/04/23 01:25:10;;;;;;;30.08;18.45;;;;;;;10.82;73.21;99712.69;4972914;28;20162;-59
2022/04/23 01:27:38;;;;;;;21.90;16.33;;;;;;;10.94;73.35;99728.84;4973302;28;20034;-59
2022/04/23 01:30:06;;;;;;;22.75;17.52;;;;;;;10.93;73.07;99729.72;4973488;28;20034;-59
2022/04/23 01:32:32;;;;;;;24.60;17.48;;;;;;;10.81;73.70;99710.13;4973160;28;20030;-58
2022/04/23 01:34:58;;;;;;;29.63;18.67;;;;;;;10.90;73.08;99732.38;4974004;28;20040;-59
2022/04/23 01:37:23;;;;;;;22.67;16.13;;;;;;;10.81;73.21;99728.25;4992976;28;20085;-59
2022/04/23 01:39:49;;;;;;;22.20;16.38;;;;;;;10.70;73.15;99724.16;4959364;28;20034;-59
2022/04/23 01:42:17;;;;;;;20.38;16.05;;;;;;;10.61;73.48;99701.03;4973198;28;20038;-59
2022/04/23 01:44:53;;;;;;;18.17;14.27;;;;;;;10.79;74.54;99728.28;4972876;28;20387;-59
2022/04/23 01:47:18;;;;;;;24.92;14.90;;;;;;;10.73;75.21;99728.44;4973012;28;20090;-59
2022/04/23 01:49:45;;;;;;;18.73;14.88;;;;;;;10.75;74.29;99726.66;4972268;28;20412;-59
2022/04/23 01:52:12;;;;;;;21.58;15.10;;;;;;;10.75;74.63;99724.06;4972617;28;20035;-59
2022/04/23 01:54:37;;;;;;;22.98;14.52;;;;;;;10.73;73.60;99732.75;4987441;28;20022;-59
2022/04/23 01:57:04;;;;;;;21.05;14.55;;;;;;;10.65;73.72;99714.78;4974617;28;20034;-61
2022/04/23 01:59:30;;;;;;;20.33;14.55;;;;;;;10.76;73.98;99728.34;4973085;28;20037;-60
2022/04/23 02:01:57;;;;;;;21.40;14.27;;;;;;;10.76;74.40;99730.94;4972669;28;20027;-60
2022/04/23 02:04:23;;;;;;;22.13;14.27;;;;;;;10.75;74.54;99729.25;4972693;28;20102;-59
2022/04/23 02:06:48;;;;;;;20.50;13.75;;;;;;;10.76;73.37;99723.19;4973323;28;20440;-59
2022/04/23 02:09:14;;;;;;;19.67;13.25;;;;;;;10.76;74.13;99733.53;4973031;28;20030;-60
2022/04/23 02:11:40;;;;;;;21.15;14.25;;;;;;;10.75;73.75;99721.47;4972861;28;20113;-60
2022/04/23 02:14:06;;;;;;;18.13;13.98;;;;;;;10.74;73.95;99724.94;4972239;28;20552;-59
2022/04/23 02:16:32;;;;;;;17.67;13.95;;;;;;;10.74;74.07;99724.94;4953768;29;20027;-59
2022/04/23 02:18:58;;;;;;;25.95;15.38;;;;;;;10.70;73.80;99729.34;4970134;28;20030;-59
2022/04/23 02:21:24;;;;;;;17.83;13.85;;;;;;;10.74;74.11;99727.53;4972713;28;20033;-60
2022/04/23 02:23:53;;;;;;;19.88;14.10;;;;;;;10.75;74.34;99726.66;4978502;28;20029;-59
2022/04/23 02:26:20;;;;;;;19.55;14.50;;;;;;;10.73;74.34;99731.03;4972883;28;20026;-59
2022/04/23 02:28:52;;;;;;;21.30;13.93;;;;;;;10.76;74.36;99724.91;4973134;28;20023;-60
2022/04/23 02:31:18;;;;;;;20.70;14.30;;;;;;;10.74;73.75;99718.91;4972509;28;20054;-59
2022/04/23 02:33:47;;;;;;;24.17;14.73;;;;;;;10.74;74.16;99724.09;4972549;28;20492;-60
2022/04/23 02:36:15;;;;;;;25.13;15.98;;;;;;;10.75;74.35;99721.47;4983061;28;20042;-60
2022/04/23 02:38:41;;;;;;;22.83;13.65;;;;;;;10.70;74.80;99721.56;4985906;28;20496;-59
2022/04/23 02:41:07;;;;;;;23.55;14.32;;;;;;;10.72;74.12;99724.13;4972404;28;20027;-59
2022/04/23 02:43:38;;;;;;;20.13;13.88;;;;;;;10.69;74.08;99719.84;4972211;28;20141;-59
2022/04/23 02:46:05;;;;;;;19.52;15.48;;;;;;;10.75;74.23;99728.41;4957176;28;20023;-61
2022/04/23 02:48:30;;;;;;;20.75;14.57;;;;;;;10.72;74.10;99724.13;4972717;28;20130;-59
2022/04/23 02:50:56;;;;;;;21.52;14.90;;;;;;;10.70;74.00;99721.56;4974436;28;20093;-59
2022/04/23 02:53:21;;;;;;;22.70;14.68;;;;;;;10.69;74.06;99716.44;4975820;28;20318;-59
2022/04/23 02:55:47;;;;;;;22.02;14.38;;;;;;;10.72;74.35;99718.94;4976032;28;20023;-59
2022/04/23 02:58:13;;;;;;;20.40;14.48;;;;;;;10.69;74.21;99706.06;4975472;28;20037;-60
2022/04/23 03:00:42;;;;;;;20.95;14.45;;;;;;;10.79;73.92;99722.25;4975512;28;20027;-60
2022/04/23 03:03:09;;;;;;;20.92;14.43;;;;;;;10.50;74.03;99684.88;4975508;28;20051;-60
2022/04/23 03:05:35;;;;;;;20.42;14.13;;;;;;;10.80;74.69;99717.06;4975696;28;20080;-59
2022/04/23 03:08:02;;;;;;;21.63;13.70;;;;;;;10.81;74.48;99710.97;4975688;28;20030;-59
2022/04/23 03:10:30;;;;;;;22.10;14.30;;;;;;;10.78;74.09;99711.03;4975559;28;20042;-59
2022/04/23 03:12:57;;;;;;;20.17;14.75;;;;;;;10.76;73.60;99722.31;4975452;28;20034;-59
2022/04/23 03:15:26;;;;;;;20.45;15.77;;;;;;;10.72;73.44;99721.53;4966331;28;20065;-58
2022/04/23 03:18:07;;;;;;;18.85;14.60;;;;;;;10.74;74.04;99719.75;4954730;29;20071;-59
2022/04/23 03:20:33;;;;;;;22.20;15.07;;;;;;;10.80;73.58;99718.78;4971100;28;20034;-59
2022/04/23 03:22:58;;;;;;;22.98;15.70;;;;;;;10.79;73.61;99717.94;4975964;28;20035;-59
2022/04/23 03:25:24;;;;;;;21.98;14.43;;;;;;;10.81;74.19;99726.50;4980298;28;20518;-59
2022/04/23 03:27:50;;;;;;;22.77;14.65;;;;;;;10.78;75.09;99731.75;4974843;28;20519;-59
2022/04/23 03:30:16;;;;;;;22.13;16.88;;;;;;;10.69;74.85;99732.81;4975422;28;20035;-59
2022/04/23 03:32:44;;;;;;;22.08;16.02;;;;;;;10.77;74.72;99730.03;4975211;28;20081;-59
2022/04/23 03:35:10;;;;;;;20.85;16.08;;;;;;;10.83;74.49;99734.25;4977004;28;20387;-59
2022/04/23 03:37:42;;;;;;;26.75;17.23;;;;;;;10.84;74.43;99726.44;4994592;28;20022;-59
2022/04/23 03:40:10;;;;;;;22.30;15.57;;;;;;;10.52;74.08;99663.25;4976821;28;20034;-58
2022/04/23 03:42:36;;;;;;;21.75;16.63;;;;;;;10.92;74.60;99728.03;4974620;28;20496;-60
2022/04/23 03:45:04;;;;;;;24.98;17.75;;;;;;;10.98;74.92;99727.88;4975155;28;20484;-59
2022/04/23 03:47:31;;;;;;;26.75;18.70;;;;;;;10.97;74.46;99726.16;4974916;28;20035;-60
2022/04/23 03:49:57;;;;;;;22.98;17.80;;;;;;;10.97;75.03;99719.25;4974833;28;20027;-60
2022/04/23 03:52:23;;;;;;;24.42;18.60;;;;;;;10.97;74.93;99721.81;4974976;28;20081;-59
2022/04/23 03:54:49;;;;;;;24.10;18.23;;;;;;;11.06;74.40;99723.38;4974804;28;20030;-59
2022/04/23 03:57:14;;;;;;;25.65;18.58;;;;;;;11.00;75.46;99715.72;4974265;28;20038;-59
2022/04/23 03:59:40;;;;;;;27.08;18.15;;;;;;;11.04;75.83;99725.16;4974545;28;20491;-59
2022/04/23 04:02:06;;;;;;;31.73;22.48;;;;;;;10.94;76.12;99727.09;4973610;28;20083;-59
2022/04/23 04:04:34;;;;;;;25.52;20.15;;;;;;;10.88;76.03;99727.22;4974942;28;20079;-60
2022/04/23 04:07:00;;;;;;;27.30;19.27;;;;;;;10.86;76.66;99722.09;4974709;28;20042;-61
2022/04/23 04:09:27;;;;;;;24.40;19.77;;;;;;;10.88;76.21;99735.00;4974435;28;20041;-60
2022/04/23 04:12:02;;;;;;;24.50;19.30;;;;;;;10.92;76.66;99722.84;4974461;28;20380;-60
2022/04/23 04:14:33;;;;;;;24.02;19.15;;;;;;;10.85;77.04;99704.81;4970336;28;20361;-59
2022/04/23 04:17:00;;;;;;;30.45;21.95;;;;;;;10.86;77.54;99722.09;4955365;29;20148;-59
2022/04/23 04:19:27;;;;;;;25.60;19.95;;;;;;;10.80;77.85;99730.00;4955103;29;20110;-59
2022/04/23 04:21:54;;;;;;;28.77;20.70;;;;;;;10.84;77.92;99716.06;4969770;28;20104;-59
2022/04/23 04:24:19;;;;;;;29.38;21.40;;;;;;;10.85;78.04;99712.59;4974192;28;20030;-59
2022/04/23 04:26:47;;;;;;;31.02;22.48;;;;;;;10.85;78.65;99710.00;4974137;28;20077;-58
2022/04/23 04:29:16;;;;;;;25.85;20.90;;;;;;;10.87;78.37;99718.63;4974266;28;20023;-59
2022/04/23 04:31:48;;;;;;;26.90;21.27;;;;;;;10.87;79.96;99721.22;4973008;28;20033;-56
2022/04/23 04:34:18;;;;;;;27.27;21.50;;;;;;;10.60;79.93;99667.41;4973500;28;20432;-58
2022/04/23 04:36:48;;;;;;;28.30;22.10;;;;;;;10.90;79.91;99714.25;4960253;28;20476;-59
2022/04/23 04:39:18;;;;;;;27.38;21.58;;;;;;;10.98;80.74;99727.88;4964636;28;20034;-59
2022/04/23 04:41:46;;;;;;;26.80;21.83;;;;;;;10.95;80.57;99717.59;4973859;28;20031;-59
2022/04/23 04:44:12;;;;;;;32.05;23.20;;;;;;;11.01;80.51;99713.09;4955852;28;20031;-59
2022/04/23 04:46:40;;;;;;;27.65;21.70;;;;;;;11.05;80.61;99724.25;4974026;28;20069;-59
2022/04/23 04:49:06;;;;;;;28.33;21.40;;;;;;;11.11;79.92;99721.53;4973862;28;20125;-59
2022/04/23 04:51:33;;;;;;;26.02;21.15;;;;;;;11.14;80.33;99723.19;4973562;28;20538;-59
2022/04/23 04:53:59;;;;;;;30.75;23.88;;;;;;;11.09;80.61;99715.53;4972622;28;20023;-58
2022/04/23 04:56:24;;;;;;;25.85;21.50;;;;;;;11.12;81.71;99718.06;4973562;28;20045;-58
2022/04/23 04:58:50;;;;;;;32.50;22.00;;;;;;;11.11;81.14;99716.34;4971226;28;20031;-58
2022/04/23 05:01:16;;;;;;;29.08;22.15;;;;;;;11.11;81.05;99716.34;4973788;28;20035;-58
2022/04/23 05:03:43;;;;;;;29.88;22.00;;;;;;;11.14;80.75;99718.84;4973458;28;20054;-58
2022/04/23 05:06:11;;;;;;;29.55;22.67;;;;;;;11.12;80.45;99712.03;4973562;28;20046;-58
2022/04/23 05:08:38;;;;;;;28.13;21.33;;;;;;;11.22;80.10;99719.53;4955626;28;20054;-59
2022/04/23 05:11:04;;;;;;;31.58;22.65;;;;;;;11.23;79.90;99720.41;4973614;28;20126;-58
2022/04/23 05:13:30;;;;;;;30.65;22.27;;;;;;;11.21;79.57;99725.59;4972387;28;20086;-58
2022/04/23 05:15:56;;;;;;;30.90;24.38;;;;;;;11.24;79.05;99719.50;4960448;28;20046;-58
2022/04/23 05:18:22;;;;;;;28.90;21.98;;;;;;;11.29;78.92;99719.41;4964606;28;20384;-58
2022/04/23 05:20:48;;;;;;;33.15;24.48;;;;;;;11.26;80.20;99722.03;4979332;28;20040;-59
2022/04/23 05:23:14;;;;;;;28.02;21.50;;;;;;;11.26;80.08;99722.03;4987590;28;20026;-59
2022/04/23 05:25:40;;;;;;;29.80;21.77;;;;;;;11.27;80.01;99713.38;4977033;28;20434;-59
2022/04/23 05:28:06;;;;;;;29.70;22.92;;;;;;;11.22;80.12;99718.69;4989559;28;20034;-59
2022/04/23 05:30:31;;;;;;;25.85;18.50;;;;;;;11.10;77.39;99724.16;4963068;28;20043;-59
2022/04/23 05:32:57;;;;;;;21.80;16.30;;;;;;;11.18;77.30;99720.50;4974998;28;20108;-59
2022/04/23 05:35:22;;;;;;;22.15;16.92;;;;;;;11.23;77.88;99716.06;4978040;28;20035;-58
2022/04/23 05:37:48;;;;;;;21.60;16.23;;;;;;;11.18;76.62;99720.50;4953907;29;20077;-60
2022/04/23 05:40:13;;;;;;;22.48;17.02;;;;;;;11.23;76.93;99716.06;4988295;28;20077;-59
2022/04/23 05:42:39;;;;;;;21.83;17.80;;;;;;;11.30;77.47;99718.50;4986500;28;20037;-59
2022/04/23 05:45:05;;;;;;;22.33;18.92;;;;;;;11.34;79.16;99722.72;4975229;28;20464;-59
2022/04/23 05:47:31;;;;;;;23.13;18.55;;;;;;;11.38;78.91;99722.59;4972934;28;20023;-60
2022/04/23 05:49:56;;;;;;;21.63;17.10;;;;;;;11.41;77.98;99724.28;4973397;28;20037;-60
2022/04/23 05:52:22;;;;;;;19.63;16.48;;;;;;;11.43;76.95;99725.13;4972844;28;20031;-59
2022/04/23 05:54:48;;;;;;;24.35;18.40;;;;;;;11.45;76.14;99728.50;4972665;28;20381;-60
2022/04/23 05:57:14;;;;;;;20.35;17.02;;;;;;;11.49;75.14;99724.94;4972607;28;20480;-61
2022/04/23 05:59:40;;;;;;;24.27;19.83;;;;;;;11.41;75.25;99711.31;4972929;28;20027;-60
2022/04/23 06:02:07;;;;;;;33.40;22.00;;;;;;;11.44;75.94;99721.59;4972847;28;20034;-59
2022/04/23 06:04:33;;;;;;;34.88;22.95;;;;;;;11.44;75.36;99726.78;4972654;28;20411;-59
2022/04/23 06:06:58;;;;;;;26.48;22.25;;;;;;;11.44;75.04;99729.38;4972963;28;20031;-59
2022/04/23 06:09:24;;;;;;;30.35;23.00;;;;;;;11.47;75.10;99724.16;4972471;28;20031;-59
2022/04/23 06:11:49;;;;;;;31.73;22.88;;;;;;;11.49;74.36;99721.53;4972715;28;20062;-59
2022/04/23 06:14:15;;;;;;;27.73;22.58;;;;;;;11.49;74.70;99724.94;4971700;28;20045;-59
2022/04/23 06:16:40;;;;;;;33.65;24.48;;;;;;;11.51;74.96;99723.16;4972973;28;20039;-59
2022/04/23 06:19:06;;;;;;;28.92;22.80;;;;;;;11.53;75.04;99718.81;4955217;28;20019;-59
2022/04/23 06:21:32;;;;;;;34.35;25.52;;;;;;;11.47;75.79;99721.56;4972597;28;20061;-59
2022/04/23 06:23:57;;;;;;;36.72;26.17;;;;;;;11.60;75.89;99719.50;4972144;28;20034;-59
2022/04/23 06:26:23;;;;;;;34.95;26.35;;;;;;;11.70;75.95;99720.09;4975230;28;20047;-59
2022/04/23 06:28:48;;;;;;;31.25;25.42;;;;;;;11.54;76.31;99710.13;4976205;28;20128;-59
2022/04/23 06:31:14;;;;;;;36.03;28.15;;;;;;;11.35;76.03;99714.91;4991223;28;20046;-59
2022/04/23 06:33:42;;;;;;;37.17;28.50;;;;;;;11.49;75.72;99709.38;4975842;28;20495;-58
2022/04/23 06:36:13;;;;;;;39.97;27.73;;;;;;;11.74;75.29;99704.44;4976008;28;20114;-59
2022/04/23 06:38:38;;;;;;;34.38;27.65;;;;;;;12.18;74.28;99714.53;4976291;28;20333;-58
2022/04/23 06:41:04;;;;;;;33.08;26.33;;;;;;;11.95;73.78;99711.72;4975416;28;20035;-59
2022/04/23 06:43:29;;;;;;;30.48;25.80;;;;;;;11.90;73.84;99714.44;4975534;28;20035;-59
2022/04/23 06:45:55;;;;;;;33.92;25.73;;;;;;;12.04;73.17;99701.97;4975816;28;20432;-59
2022/04/23 06:48:21;;;;;;;29.65;24.48;;;;;;;12.25;71.78;99700.50;4976282;28;20055;-59
2022/04/23 06:50:46;;;;;;;32.20;25.50;;;;;;;12.54;70.96;99704.03;4975746;28;20039;-59
2022/04/23 06:53:12;;;;;;;34.95;24.65;;;;;;;12.76;70.69;99708.56;4975468;28;20034;-60
2022/04/23 06:55:37;;;;;;;32.55;24.85;;;;;;;12.76;70.28;99711.16;4975853;28;20038;-59
2022/04/23 06:58:03;;;;;;;30.75;24.35;;;;;;;12.96;70.00;99723.56;4975718;28;20027;-60
2022/04/23 07:00:29;;;;;;;30.50;24.35;;;;;;;12.97;70.29;99719.19;4975930;28;20337;-60
2022/04/23 07:02:56;;;;;;;29.10;24.08;;;;;;;12.84;69.66;99716.13;4975214;28;20130;-60
2022/04/23 07:05:21;;;;;;;30.30;23.38;;;;;;;12.79;69.22;99713.69;4975528;28;20130;-60
2022/04/23 07:07:58;;;;;;;32.80;23.30;;;;;;;13.26;68.48;99720.91;4975815;28;20031;-60
2022/04/23 07:10:28;;;;;;;34.20;25.77;;;;;;;13.36;68.03;99674.66;4993384;28;20029;-60
2022/04/23 07:12:55;;;;;;;33.63;24.23;;;;;;;14.30;65.60;99715.69;4975522;28;20073;-60
2022/04/23 07:15:22;;;;;;;25.58;21.92;;;;;;;14.71;64.44;99709.84;4975149;28;20023;-60
2022/04/23 07:17:49;;;;;;;27.25;22.40;;;;;;;14.95;62.00;99700.22;4975385;28;20407;-61
2022/04/23 07:20:16;;;;;;;27.80;22.90;;;;;;;14.29;64.14;99720.03;4975590;28;20031;-59
2022/04/23 07:24:03;;;;;;;31.88;23.00;;;;;;;14.47;64.35;99709.84;4975546;28;20030;-58
2022/04/23 07:25:32;;;;;;;25.75;22.35;;;;;;;14.50;64.75;99713.16;4980094;28;20109;-59
2022/04/23 07:27:58;;;;;;;31.20;23.80;;;;;;;14.30;63.80;99693.06;4975252;28;20035;-59
2022/04/23 07:30:25;;;;;;;29.33;23.63;;;;;;;13.97;64.04;99697.75;4975277;28;20033;-58
2022/04/23 07:32:54;;;;;;;32.70;24.83;;;;;;;13.48;65.14;99708.06;4975247;28;20074;-59
2022/04/23 07:38:14;;;;;;;32.08;24.90;;;;;;;13.72;64.90;99703.78;4994550;28;20026;-59
2022/04/23 07:40:41;;;;;;;30.30;23.73;;;;;;;14.08;65.14;99705.16;4955853;29;20031;-60
2022/04/23 07:43:12;;;;;;;29.42;23.20;;;;;;;14.11;64.33;99707.69;4972120;28;20440;-58
2022/04/23 07:45:38;;;;;;;29.60;23.80;;;;;;;14.10;64.03;99695.56;4974631;28;20030;-59
2022/04/23 07:48:05;;;;;;;30.65;23.98;;;;;;;14.20;63.63;99707.34;4973397;28;20050;-59
2022/04/23 07:50:32;;;;;;;27.45;24.50;;;;;;;14.11;65.12;99705.06;4974796;28;20030;-58
2022/04/23 07:52:57;;;;;;;34.78;25.60;;;;;;;14.10;65.90;99703.38;4974417;28;20723;-59
2022/04/23 07:55:23;;;;;;;28.67;23.98;;;;;;;14.01;65.29;99698.47;4974582;28;20026;-60
2022/04/23 07:57:49;;;;;;;29.30;24.33;;;;;;;13.86;65.91;99697.28;4974680;28;20041;-59
2022/04/23 08:00:15;;;;;;;31.33;24.88;;;;;;;13.86;65.84;99702.47;4974802;28;20041;-59
2022/04/23 08:02:40;;;;;;;31.92;24.20;;;;;;;13.85;66.24;99703.38;4974464;28;20046;-59
2022/04/23 08:05:09;;;;;;;32.42;25.77;;;;;;;13.84;65.84;99706.88;4974813;28;20608;-60
2022/04/23 08:07:35;;;;;;;30.42;24.02;;;;;;;13.92;66.08;99703.13;4974213;28;20027;-59
2022/04/23 08:10:02;;;;;;;32.17;27.02;;;;;;;13.85;64.61;99690.34;4974416;28;20392;-59
2022/04/23 08:12:29;;;;;;;31.65;25.98;;;;;;;14.00;64.30;99694.19;4974614;28;20062;-60
2022/04/23 08:14:55;;;;;;;34.88;26.73;;;;;;;14.11;65.11;99689.44;4973914;28;20023;-61
2022/04/23 08:17:21;;;;;;;29.40;25.33;;;;;;;14.12;64.45;99693.72;4974679;28;20023;-60
2022/04/23 08:19:46;;;;;;;31.30;25.48;;;;;;;14.23;63.95;99683.78;4974246;28;20057;-58
2022/04/23 08:22:12;;;;;;;36.95;27.35;;;;;;;14.08;64.17;99690.41;4956545;28;20114;-59
2022/04/23 08:24:38;;;;;;;31.70;26.42;;;;;;;14.37;64.30;99685.03;4974135;28;20404;-59
2022/04/23 08:27:04;;;;;;;30.02;26.65;;;;;;;13.90;64.12;99686.69;4974019;28;20041;-59
2022/04/23 08:32:14;;;;;;;30.30;25.15;;;;;;;13.92;64.49;99687.50;4973916;28;20034;-59
2022/04/23 08:34:39;;;;;;;37.70;27.38;;;;;;;14.16;64.02;99684.91;4973928;28;20039;-58
2022/04/23 08:37:05;;;;;;;35.63;26.33;;;;;;;14.64;63.16;99688.41;4973878;28;20027;-59
2022/04/23 08:39:30;;;;;;;29.70;24.63;;;;;;;14.29;63.30;99674.88;4966589;28;20041;-59
2022/04/23 08:41:56;;;;;;;32.13;25.80;;;;;;;13.78;64.05;99687.09;4985831;28;20023;-59
2022/04/23 08:44:22;;;;;;;35.50;25.23;;;;;;;13.71;62.74;99686.50;4973848;28;20029;-59
2022/04/23 08:46:50;;;;;;;30.38;25.90;;;;;;;14.41;62.47;99671.84;4973808;28;20023;-59
2022/04/23 08:49:17;;;;;;;32.88;24.95;;;;;;;14.53;62.22;99670.50;4989215;28;20031;-59
2022/04/23 08:51:47;;;;;;;32.53;24.65;;;;;;;14.69;60.84;99677.78;4993187;28;20041;-59
2022/04/23 08:54:14;;;;;;;29.38;23.85;;;;;;;14.52;59.60;99671.41;4979580;28;20038;-58
2022/04/23 08:56:45;;;;;;;29.40;24.05;;;;;;;14.04;59.29;99621.09;4973495;28;20037;-59
2022/04/23 08:59:16;;;;;;;30.40;22.95;;;;;;;14.43;58.91;99661.34;4973629;28;20399;-58
2022/04/23 09:01:44;;;;;;;38.17;24.80;;;;;;;14.65;59.24;99675.31;4973642;28;20074;-58
2022/04/23 09:04:11;;;;;;;34.40;24.83;;;;;;;14.57;59.34;99666.88;4972970;28;20051;-58
2022/04/23 09:06:39;;;;;;;33.60;24.58;;;;;;;14.47;57.99;99634.28;4973169;28;20034;-60
2022/04/23 09:09:10;;;;;;;31.92;23.98;;;;;;;14.95;58.23;99666.31;4973099;28;20361;-58
2022/04/23 09:11:37;;;;;;;28.50;23.70;;;;;;;15.25;58.56;99668.59;4956216;28;20023;-60
2022/04/23 09:14:06;;;;;;;31.83;23.60;;;;;;;15.56;59.16;99657.72;4956153;28;20018;-60
2022/04/23 09:25:10;;;;;;;26.15;21.77;;;;;;;15.65;55.58;99667.78;4955299;28;20031;-59
2022/04/23 09:27:38;;;;;;;24.75;20.52;;;;;;;15.38;55.82;99650.69;4979814;28;20027;-59
2022/04/23 09:30:06;;;;;;;33.65;22.13;;;;;;;14.58;54.57;99590.41;4992565;28;20114;-59
2022/04/23 09:32:32;;;;;;;30.05;23.00;;;;;;;15.34;54.81;99663.84;4976200;28;20385;-59
2022/04/23 09:35:09;;;;;;;33.40;23.35;;;;;;;15.28;55.18;99671.94;4972925;28;20082;-60
2022/04/23 09:40:25;;;;;;;30.33;23.35;;;;;;;15.05;55.13;99585.94;4975896;28;20089;-59
2022/04/23 09:43:08;;;;;;;30.48;24.00;;;;;;;15.12;54.82;99616.09;4971165;28;20058;-59
2022/04/23 09:45:39;;;;;;;35.67;26.98;;;;;;;14.83;56.27;99667.66;4972507;28;20037;-59
2022/04/23 09:48:14;;;;;;;32.15;25.90;;;;;;;14.51;57.34;99661.91;4972788;28;20059;-58
2022/04/23 09:50:43;;;;;;;34.45;26.48;;;;;;;14.54;57.77;99643.56;4972912;28;20035;-59
2022/04/23 09:53:13;;;;;;;31.08;25.42;;;;;;;14.56;56.32;99615.66;4955233;28;20019;-59
2022/04/23 09:55:39;;;;;;;36.85;26.52;;;;;;;14.31;57.50;99660.91;4972930;28;20035;-59
2022/04/23 09:58:09;;;;;;;38.60;25.95;;;;;;;14.31;57.56;99606.19;4960404;28;20137;-59
2022/04/23 10:00:37;;;;;;;34.40;25.35;;;;;;;14.65;56.90;99662.28;4985894;28;20029;-59
2022/04/23 10:03:06;;;;;;;33.05;25.48;;;;;;;14.92;57.05;99640.38;4996253;28;20074;-59
2022/04/23 10:05:37;;;;;;;30.02;21.55;;;;;;;14.58;56.26;99658.16;4996290;28;20034;-61
2022/04/23 10:08:09;;;;;;;31.05;20.95;;;;;;;14.97;56.11;99647.09;4996413;28;20065;-60
2022/04/23 10:10:43;;;;;;;26.63;20.67;;;;;;;14.86;55.20;99601.50;4981860;28;20479;-59
2022/04/23 10:13:11;;;;;;;31.70;22.20;;;;;;;15.04;55.38;99644.25;4943057;28;20047;-59
2022/04/23 10:15:39;;;;;;;31.17;20.23;;;;;;;15.06;55.84;99640.66;4962895;28;20417;-60
2022/04/23 10:18:10;;;;;;;30.08;20.88;;;;;;;15.14;55.35;99642.97;4962018;28;20026;-59
2022/04/23 10:20:39;;;;;;;27.05;21.00;;;;;;;15.05;55.12;99645.94;4976541;28;20030;-59
2022/04/23 10:23:10;;;;;;;29.60;20.38;;;;;;;15.46;54.78;99636.41;4976540;28;20097;-60
2022/04/23 10:25:47;;;;;;;29.90;19.45;;;;;;;15.49;53.25;99635.41;4976042;28;20027;-60
2022/04/23 10:28:16;;;;;;;21.45;17.08;;;;;;;15.02;52.93;99637.34;4976620;28;20043;-59
2022/04/23 10:30:45;;;;;;;27.65;17.60;;;;;;;14.75;52.23;99594.13;4976315;28;20053;-59
2022/04/23 10:33:28;;;;;;;22.55;17.08;;;;;;;15.38;52.13;99632.41;4976176;28;20035;-59
2022/04/23 10:36:10;;;;;;;22.95;17.55;;;;;;;15.50;51.67;99639.72;4976370;28;20022;-60
2022/04/23 10:38:38;;;;;;;22.70;17.17;;;;;;;15.35;52.14;99592.50;4976074;28;20099;-59
2022/04/23 10:41:09;;;;;;;23.30;16.30;;;;;;;15.74;51.92;99637.00;4975532;28;20035;-60
2022/04/23 10:43:34;;;;;;;23.55;16.13;;;;;;;15.70;52.69;99637.13;4974895;28;20023;-60
2022/04/23 10:46:00;;;;;;;21.75;16.83;;;;;;;15.55;50.47;99629.94;4975769;28;20092;-59
2022/04/23 10:48:28;;;;;;;23.58;16.88;;;;;;;15.45;51.24;99620.78;4975949;28;20399;-58
2022/04/23 10:51:26;;;;;;;26.80;18.23;;;;;;;15.41;51.55;99632.31;4975621;28;20037;-59
2022/04/23 10:53:54;;;;;;;24.52;16.85;;;;;;;15.59;52.09;99620.22;4972211;28;20042;-59
2022/04/23 10:56:21;;;;;;;21.35;16.65;;;;;;;15.51;51.49;99620.56;4975832;28;20054;-61
2022/04/23 10:58:46;;;;;;;18.13;14.65;;;;;;;15.78;52.57;99622.88;4975934;28;20034;-59
2022/04/23 11:01:25;;;;;;;20.40;15.15;;;;;;;15.79;51.44;99621.97;4975291;28;20027;-59
2022/04/23 11:04:08;;;;;;;23.00;14.80;;;;;;;15.87;51.95;99596.38;4975466;28;20093;-59
2022/04/23 11:12:20;;;;;;;21.55;15.40;;;;;;;15.44;51.15;99617.34;4975103;28;20041;-59
2022/04/23 11:14:49;;;;;;;21.05;14.98;;;;;;;15.67;50.92;99605.06;4975384;28;20046;-59
2022/04/23 11:17:20;;;;;;;17.67;14.35;;;;;;;15.87;50.80;99599.00;4975725;28;20086;-58
2022/04/23 11:19:50;;;;;;;18.27;13.90;;;;;;;16.01;49.11;99609.66;4975744;28;20026;-60
2022/04/23 11:22:16;;;;;;;18.08;14.32;;;;;;;15.91;48.69;99602.31;4974717;28;20038;-59
2022/04/23 11:24:45;;;;;;;22.70;14.32;;;;;;;15.46;49.19;99589.44;4975108;28;20050;-59
2022/04/23 11:27:23;;;;;;;18.83;14.70;;;;;;;15.80;49.64;99600.19;4985740;28;20107;-59
2022/04/23 11:29:53;;;;;;;17.55;14.00;;;;;;;15.87;48.74;99599.00;4971977;28;20054;-58
2022/04/23 11:32:29;;;;;;;17.60;13.73;;;;;;;15.77;47.71;99595.91;4975382;28;20053;-59
2022/04/23 11:35:03;;;;;;;19.73;13.63;;;;;;;15.54;48.13;99591.69;4957668;28;20031;-59
2022/04/23 11:37:35;;;;;;;19.38;13.50;;;;;;;15.72;49.02;99597.88;4974594;28;20030;-59
2022/04/23 11:40:06;;;;;;;23.20;16.92;;;;;;;15.52;49.28;99542.19;4975002;28;20105;-59
2022/04/23 11:42:50;;;;;;;18.20;14.18;;;;;;;15.83;49.87;99589.59;4975210;28;20114;-60